Time;durP1;ratioP1;P1;durP2;ratioP2;P2;SDS_P1;SDS_P2;PMS_P1;PMS_P2;Temp;Humidity;BMP_temperature;BMP_pressure;BME280_temperature;BME280_humidity;BME280_pressure;Samples;Min_cycle;Max_cycle;Signal;HPM_P1;HPM_P2
2022/06/28 00:01:37;;;;;;;857.43;778.37;;;11.00;99.90;;;;;;4999624;28;20561;-81
2022/06/28 00:04:03;;;;;;;867.20;786.50;;;10.90;99.90;;;;;;4999032;28;20488;-83
2022/06/28 00:06:30;;;;;;;852.27;771.70;;;11.00;99.90;;;;;;4999596;28;20445;-81
2022/06/28 00:08:57;;;;;;;839.30;759.53;;;11.10;99.90;;;;;;4999522;28;20478;-81
2022/06/28 00:11:24;;;;;;;841.97;761.13;;;11.10;99.90;;;;;;4999579;28;20453;-81
2022/06/28 00:13:52;;;;;;;853.47;772.57;;;11.00;99.90;;;;;;4999435;28;20457;-81
2022/06/28 00:16:19;;;;;;;839.57;759.87;;;11.10;99.90;;;;;;4999443;28;20481;-81
2022/06/28 00:18:46;;;;;;;849.83;769.90;;;11.10;99.90;;;;;;4999149;28;20454;-81
2022/06/28 00:21:13;;;;;;;843.87;763.53;;;11.00;99.90;;;;;;4999688;28;20465;-81
2022/06/28 00:23:42;;;;;;;855.93;775.03;;;11.00;99.90;;;;;;4999774;28;20454;-79
2022/06/28 00:26:11;;;;;;;848.23;766.10;;;11.10;99.90;;;;;;4999246;28;20859;-81
2022/06/28 00:28:37;;;;;;;853.30;770.37;;;11.00;99.90;;;;;;4998832;28;20896;-81
2022/06/28 00:31:06;;;;;;;852.87;769.90;;;11.10;99.90;;;;;;4999345;28;20469;-81
2022/06/28 00:33:32;;;;;;;858.60;776.30;;;11.10;99.90;;;;;;4999167;28;20494;-81
2022/06/28 00:35:59;;;;;;;854.80;772.30;;;11.00;99.90;;;;;;4999008;28;20477;-83
2022/06/28 00:38:26;;;;;;;845.03;763.27;;;11.00;99.90;;;;;;4999218;28;20458;-81
2022/06/28 00:40:54;;;;;;;844.07;764.17;;;11.00;99.90;;;;;;4999168;28;20570;-81
2022/06/28 00:43:22;;;;;;;854.47;773.47;;;10.90;99.90;;;;;;4998909;28;20456;-81
2022/06/28 00:45:49;;;;;;;852.07;771.33;;;10.70;99.90;;;;;;4998827;28;20525;-81
2022/06/28 00:48:18;;;;;;;852.60;770.73;;;10.80;99.90;;;;;;4998945;28;20454;-82
2022/06/28 00:50:45;;;;;;;876.77;794.50;;;10.80;99.90;;;;;;4998797;28;20519;-81
2022/06/28 00:53:13;;;;;;;871.50;788.90;;;10.70;99.90;;;;;;4999070;28;20469;-81
2022/06/28 00:55:40;;;;;;;846.70;764.60;;;10.80;99.90;;;;;;4998665;28;20854;-81
2022/06/28 00:58:07;;;;;;;856.27;774.27;;;10.70;99.90;;;;;;4996339;28;20469;-81
2022/06/28 01:00:38;;;;;;;855.40;773.00;;;10.70;99.90;;;;;;4996042;28;20454;-81
2022/06/28 01:03:06;;;;;;;865.70;783.90;;;10.70;99.90;;;;;;4995844;28;20454;-81
2022/06/28 01:05:36;;;;;;;860.07;778.07;;;10.70;99.90;;;;;;4995436;28;20478;-82
2022/06/28 01:08:04;;;;;;;862.33;780.40;;;10.60;99.90;;;;;;4995930;28;20494;-83
2022/06/28 01:10:30;;;;;;;869.30;787.77;;;10.60;99.90;;;;;;4995509;28;20477;-81
2022/06/28 01:12:57;;;;;;;860.00;779.23;;;10.50;99.90;;;;;;4995624;28;20473;-84
2022/06/28 01:15:24;;;;;;;861.47;778.43;;;10.50;99.90;;;;;;4995108;28;20993;-81
2022/06/28 01:17:50;;;;;;;858.47;776.43;;;10.50;99.90;;;;;;4995642;28;20820;-81
2022/06/28 01:20:17;;;;;;;857.47;775.40;;;10.50;99.90;;;;;;4995134;28;20450;-81
2022/06/28 01:22:45;;;;;;;859.60;775.87;;;10.50;99.90;;;;;;4995411;28;20450;-81
2022/06/28 01:25:13;;;;;;;854.50;770.90;;;10.40;99.90;;;;;;4995006;28;20482;-81
2022/06/28 01:27:40;;;;;;;863.37;777.77;;;10.60;99.90;;;;;;4994993;28;20477;-81
2022/06/28 01:30:08;;;;;;;861.53;778.67;;;10.90;99.90;;;;;;4995319;28;20458;-81
2022/06/28 01:32:36;;;;;;;864.63;783.20;;;11.40;99.90;;;;;;4995506;28;20465;-81
2022/06/28 01:35:04;;;;;;;839.80;761.13;;;11.70;99.90;;;;;;4995143;28;20861;-82
2022/06/28 01:37:31;;;;;;;808.83;730.20;;;11.70;99.90;;;;;;4995190;28;20973;-82
2022/06/28 01:39:59;;;;;;;811.50;738.10;;;11.70;99.90;;;;;;4995294;28;20485;-81
2022/06/28 01:42:28;;;;;;;840.37;765.60;;;11.30;99.90;;;;;;4995326;28;20461;-81
2022/06/28 01:44:56;;;;;;;836.97;761.90;;;11.30;99.90;;;;;;4994886;28;20558;-81
2022/06/28 01:47:24;;;;;;;833.17;756.30;;;11.00;99.90;;;;;;4994900;28;20462;-81
2022/06/28 01:49:51;;;;;;;845.27;767.47;;;10.90;99.90;;;;;;4994719;28;20450;-81
2022/06/28 01:52:18;;;;;;;837.90;760.03;;;10.80;99.90;;;;;;4994858;28;20461;-81
2022/06/28 01:54:46;;;;;;;837.40;759.50;;;10.70;99.90;;;;;;4994642;28;20482;-81
2022/06/28 01:57:15;;;;;;;850.07;770.47;;;10.70;99.90;;;;;;4994735;28;20465;-81
2022/06/28 01:59:42;;;;;;;854.87;774.63;;;10.70;99.90;;;;;;4994827;28;20484;-81
2022/06/28 02:02:09;;;;;;;862.23;782.73;;;10.60;99.90;;;;;;4994713;28;20839;-81
2022/06/28 02:04:36;;;;;;;862.27;781.87;;;10.60;99.90;;;;;;4994424;28;20478;-82
2022/06/28 02:07:03;;;;;;;859.57;778.77;;;10.60;99.90;;;;;;4994496;28;20453;-81
2022/06/28 02:09:29;;;;;;;853.20;770.77;;;10.70;99.90;;;;;;4994501;28;20462;-81
2022/06/28 02:11:56;;;;;;;865.83;783.13;;;10.80;99.90;;;;;;4994518;28;20454;-81
2022/06/28 02:14:24;;;;;;;860.30;776.27;;;10.60;99.90;;;;;;4994220;28;20481;-81
2022/06/28 02:16:51;;;;;;;855.50;771.60;;;10.70;99.90;;;;;;4994487;28;20458;-81
2022/06/28 02:19:18;;;;;;;857.50;773.47;;;10.80;99.90;;;;;;4994504;28;20478;-81
2022/06/28 02:21:45;;;;;;;862.63;777.77;;;10.60;99.90;;;;;;4994121;28;20458;-83
2022/06/28 02:24:13;;;;;;;870.07;785.17;;;10.60;99.90;;;;;;4994197;28;20454;-81
2022/06/28 02:26:40;;;;;;;870.77;785.07;;;10.50;99.90;;;;;;4994114;28;20458;-81
2022/06/28 02:29:08;;;;;;;872.53;787.97;;;10.40;99.90;;;;;;4994341;28;20461;-81
2022/06/28 02:31:37;;;;;;;876.37;792.50;;;10.30;99.90;;;;;;4994364;28;20454;-81
2022/06/28 02:34:05;;;;;;;868.83;783.10;;;10.10;99.90;;;;;;4993721;28;20453;-81
2022/06/28 02:42:00;;;;;;;874.10;786.90;;;10.10;99.90;;;;;;4993912;28;20453;-82
2022/06/28 02:44:27;;;;;;;875.67;788.40;;;10.10;99.90;;;;;;4994012;28;20505;-81
2022/06/28 02:46:55;;;;;;;881.17;792.70;;;10.20;99.90;;;;;;4994020;28;20826;-81
2022/06/28 02:49:22;;;;;;;880.47;790.63;;;10.20;99.90;;;;;;4993829;28;20465;-81
2022/06/28 02:51:48;;;;;;;886.87;797.43;;;10.20;99.90;;;;;;4993907;28;20486;-83
2022/06/28 02:54:15;;;;;;;889.73;799.53;;;10.10;99.90;;;;;;4993438;28;20454;-81
2022/06/28 02:56:42;;;;;;;882.50;792.17;;;10.00;99.90;;;;;;4993696;28;20461;-81
2022/06/28 02:59:09;;;;;;;885.80;797.83;;;10.10;99.90;;;;;;4993372;28;20500;-81
2022/06/28 03:01:36;;;;;;;885.10;797.10;;;9.90;99.90;;;;;;4993649;28;20454;-81
2022/06/28 03:04:04;;;;;;;885.90;797.17;;;9.90;99.90;;;;;;4993583;28;20769;-81
2022/06/28 03:06:31;;;;;;;875.47;786.60;;;9.90;99.90;;;;;;4993608;28;20465;-81
2022/06/28 03:08:58;;;;;;;887.93;798.63;;;9.80;99.90;;;;;;4993396;28;20832;-81
2022/06/28 03:11:24;;;;;;;890.33;801.23;;;9.80;99.90;;;;;;4993439;28;20469;-81
2022/06/28 03:13:51;;;;;;;883.53;793.50;;;9.80;99.90;;;;;;4992942;28;20841;-80
2022/06/28 03:16:18;;;;;;;881.80;792.03;;;9.80;99.90;;;;;;4993409;28;20486;-82
2022/06/28 03:18:44;;;;;;;883.23;794.37;;;9.80;99.90;;;;;;4993462;28;20845;-81
2022/06/28 03:21:12;;;;;;;899.63;810.47;;;9.80;99.90;;;;;;4992782;28;20478;-80
2022/06/28 03:23:39;;;;;;;885.93;796.60;;;9.80;99.90;;;;;;4993149;28;20454;-80
2022/06/28 03:26:06;;;;;;;879.20;791.30;;;9.70;99.90;;;;;;4993138;28;20474;-80
2022/06/28 03:28:33;;;;;;;877.40;789.47;;;9.80;99.90;;;;;;4993047;28;20547;-81
2022/06/28 03:30:59;;;;;;;871.83;782.57;;;9.80;99.90;;;;;;4993462;28;20461;-81
2022/06/28 03:33:26;;;;;;;861.87;772.37;;;9.90;99.90;;;;;;4993283;28;20454;-80
2022/06/28 03:35:53;;;;;;;857.67;767.83;;;9.90;99.90;;;;;;4992941;28;20481;-82
2022/06/28 03:38:21;;;;;;;866.57;776.70;;;9.90;99.90;;;;;;4993358;28;20946;-80
2022/06/28 03:40:48;;;;;;;868.33;777.73;;;9.80;99.90;;;;;;4992863;28;20478;-80
2022/06/28 03:43:14;;;;;;;880.63;788.20;;;9.80;99.90;;;;;;4993370;28;20458;-80
2022/06/28 03:45:41;;;;;;;885.43;794.43;;;9.90;99.90;;;;;;4992779;28;20482;-82
2022/06/28 03:48:08;;;;;;;881.57;790.40;;;9.70;99.90;;;;;;4993042;28;20461;-81
2022/06/28 03:50:35;;;;;;;870.13;778.87;;;9.80;99.90;;;;;;4992986;28;20465;-80
2022/06/28 03:53:02;;;;;;;875.73;784.93;;;9.90;99.90;;;;;;4992813;28;20465;-80
2022/06/28 03:55:30;;;;;;;875.33;783.77;;;9.90;99.90;;;;;;4992658;28;20478;-81
2022/06/28 03:57:57;;;;;;;883.30;791.83;;;10.00;99.90;;;;;;4993105;28;20461;-80
2022/06/28 04:00:23;;;;;;;877.70;787.80;;;9.90;99.90;;;;;;4993242;28;20553;-81
2022/06/28 04:02:50;;;;;;;865.20;775.43;;;10.00;99.90;;;;;;4992973;28;20458;-82
2022/06/28 04:05:17;;;;;;;868.40;778.77;;;9.90;99.90;;;;;;4992615;28;20481;-80
2022/06/28 04:07:44;;;;;;;858.97;768.67;;;10.20;99.90;;;;;;4992934;28;20844;-81
2022/06/28 04:10:11;;;;;;;849.03;758.23;;;10.00;99.90;;;;;;4992947;28;20454;-82
2022/06/28 04:12:39;;;;;;;851.57;760.57;;;10.10;99.90;;;;;;4992714;28;20458;-81
2022/06/28 04:15:06;;;;;;;862.07;771.67;;;10.00;99.90;;;;;;4992290;28;20478;-81
2022/06/28 04:17:33;;;;;;;858.57;768.13;;;10.20;99.90;;;;;;4992623;28;20465;-81
2022/06/28 04:20:00;;;;;;;849.13;758.83;;;10.30;99.90;;;;;;4992632;28;20553;-81
2022/06/28 04:22:26;;;;;;;857.10;766.10;;;10.30;99.90;;;;;;4992639;28;20462;-81
2022/06/28 04:24:53;;;;;;;848.00;757.13;;;10.40;99.90;;;;;;4992377;28;20990;-82
2022/06/28 04:27:20;;;;;;;848.50;757.70;;;10.40;99.90;;;;;;4992659;28;20467;-81
2022/06/28 04:29:48;;;;;;;856.70;765.40;;;10.50;99.90;;;;;;4992771;28;20454;-81
2022/06/28 04:32:15;;;;;;;848.43;757.73;;;10.60;99.90;;;;;;4992548;28;20972;-81
2022/06/28 04:34:41;;;;;;;855.83;766.07;;;10.70;99.90;;;;;;4995181;28;20477;-81
2022/06/28 04:37:08;;;;;;;850.53;760.37;;;10.80;99.90;;;;;;4996421;28;20950;-82
2022/06/28 04:39:35;;;;;;;853.20;760.80;;;11.00;99.90;;;;;;4996091;28;20461;-81
2022/06/28 04:42:02;;;;;;;856.30;764.10;;;11.00;99.90;;;;;;4996281;28;20456;-81
2022/06/28 04:44:29;;;;;;;843.60;753.10;;;11.10;99.90;;;;;;4996536;28;20478;-81
2022/06/28 04:46:57;;;;;;;851.07;759.37;;;11.20;99.90;;;;;;4996130;28;20462;-81
2022/06/28 04:49:24;;;;;;;868.50;776.53;;;11.20;99.90;;;;;;4995847;28;20846;-81
2022/06/28 04:51:51;;;;;;;856.53;762.77;;;11.40;99.90;;;;;;4995575;28;20965;-82
2022/06/28 04:54:17;;;;;;;862.10;771.40;;;11.60;99.90;;;;;;4996010;28;20478;-80
2022/06/28 04:56:44;;;;;;;853.27;763.13;;;11.60;99.90;;;;;;4996034;28;20461;-82
2022/06/28 04:59:11;;;;;;;848.03;758.67;;;11.70;99.90;;;;;;4996232;28;20638;-81
2022/06/28 05:01:37;;;;;;;849.77;760.57;;;11.80;99.90;;;;;;4995740;28;20474;-81
2022/06/28 05:04:06;;;;;;;845.43;757.57;;;11.90;99.90;;;;;;4995498;28;20457;-81
2022/06/28 05:06:32;;;;;;;834.57;746.23;;;12.00;99.90;;;;;;4995819;28;20454;-81
2022/06/28 05:08:59;;;;;;;845.80;757.73;;;12.10;99.90;;;;;;4995678;28;20457;-80
2022/06/28 05:11:26;;;;;;;842.30;754.60;;;12.30;99.90;;;;;;4995943;28;20457;-81
2022/06/28 05:13:53;;;;;;;857.40;768.10;;;12.20;99.90;;;;;;4995144;28;20458;-81
2022/06/28 05:16:20;;;;;;;862.50;774.30;;;12.20;99.90;;;;;;4995681;28;21024;-81
2022/06/28 05:18:47;;;;;;;844.50;758.10;;;12.30;99.90;;;;;;4995595;28;20497;-81
2022/06/28 05:21:15;;;;;;;799.73;722.03;;;12.70;99.90;;;;;;4994930;28;20477;-80
2022/06/28 05:23:42;;;;;;;748.13;678.83;;;13.20;99.90;;;;;;4994438;28;20472;-81
2022/06/28 05:26:08;;;;;;;710.23;652.93;;;13.70;99.90;;;;;;4994960;28;20485;-80
2022/06/28 05:28:35;;;;;;;629.17;588.63;;;14.20;99.90;;;;;;4997050;28;20466;-82
2022/06/28 05:31:02;;;;;;;155.93;149.97;;;14.80;99.90;;;;;;4995162;28;20454;-82
2022/06/28 05:33:30;;;;;;;25.13;23.40;;;15.40;99.90;;;;;;4994928;28;20462;-81
2022/06/28 05:35:57;;;;;;;14.63;6.00;;;15.90;99.90;;;;;;4994349;28;20504;-81
2022/06/28 05:38:25;;;;;;;10.10;4.57;;;16.50;99.90;;;;;;4994450;28;20458;-82
2022/06/28 05:40:52;;;;;;;7.00;3.63;;;17.20;99.90;;;;;;4996475;28;20526;-81
2022/06/28 05:43:18;;;;;;;6.23;3.27;;;17.60;99.90;;;;;;4996374;28;20464;-80
2022/06/28 05:45:45;;;;;;;5.47;2.60;;;18.00;99.90;;;;;;4996597;28;20481;-80
2022/06/28 05:48:12;;;;;;;7.40;2.40;;;18.30;99.90;;;;;;4995840;28;20461;-82
2022/06/28 05:50:39;;;;;;;5.80;1.77;;;18.60;99.90;;;;;;4996210;28;20936;-81
2022/06/28 05:53:06;;;;;;;8.70;2.30;;;19.10;99.90;;;;;;4995377;28;20464;-81
2022/06/28 05:55:34;;;;;;;5.17;1.77;;;19.10;94.70;;;;;;4995154;28;20522;-83
2022/06/28 05:58:01;;;;;;;5.20;1.70;;;19.30;94.80;;;;;;4995227;28;20454;-81
2022/06/28 06:00:27;;;;;;;8.70;2.40;;;19.20;91.30;;;;;;4994932;28;20571;-81
2022/06/28 06:02:54;;;;;;;5.17;1.83;;;19.50;90.80;;;;;;4995968;28;20461;-82
2022/06/28 06:05:21;;;;;;;5.20;1.57;;;19.40;90.20;;;;;;4995318;28;21164;-82
2022/06/28 06:07:47;;;;;;;5.97;2.13;;;19.40;85.50;;;;;;4996599;28;20450;-80
2022/06/28 06:10:14;;;;;;;5.07;1.50;;;19.30;85.40;;;;;;4995703;28;20463;-82
2022/06/28 06:12:42;;;;;;;5.57;1.83;;;19.60;90.60;;;;;;4995265;28;20459;-81
2022/06/28 06:15:10;;;;;;;10.27;1.57;;;19.70;85.80;;;;;;4994485;28;20487;-81
2022/06/28 06:17:36;;;;;;;9.10;2.33;;;19.90;79.70;;;;;;4995717;28;20459;-82
2022/06/28 06:20:04;;;;;;;6.10;1.77;;;20.00;78.60;;;;;;4995067;28;20461;-82
2022/06/28 06:22:31;;;;;;;6.70;1.77;;;20.30;82.00;;;;;;4995022;28;20480;-83
2022/06/28 06:24:58;;;;;;;6.37;1.63;;;20.40;78.50;;;;;;4994961;28;21161;-81
2022/06/28 06:27:25;;;;;;;11.57;2.40;;;20.70;76.00;;;;;;4995476;28;20463;-81
2022/06/28 06:29:53;;;;;;;6.43;2.30;;;20.80;76.00;;;;;;4995250;28;20452;-80
2022/06/28 06:32:19;;;;;;;7.67;1.73;;;21.00;67.60;;;;;;4994646;28;20459;-80
2022/06/28 06:34:46;;;;;;;4.50;1.50;;;21.10;67.10;;;;;;4995064;28;20858;-81
2022/06/28 07:03:02;;;;;;;13.50;2.43;;;22.50;51.10;;;;;;4958427;28;20422;-84
2022/06/28 07:26:35;;;;;;;4.70;1.40;;;22.50;44.40;;;;;;4689806;30;20497;-81
2022/06/28 07:29:02;;;;;;;5.83;1.40;;;22.80;45.60;;;;;;4834066;29;20208;-82
2022/06/28 07:31:30;;;;;;;5.30;1.47;;;22.80;41.50;;;;;;4892908;29;20483;-82
2022/06/28 07:33:58;;;;;;;8.20;2.30;;;22.70;41.40;;;;;;4954292;29;20944;-82
2022/06/28 07:36:25;;;;;;;5.17;1.63;;;22.70;42.90;;;;;;4954667;29;20908;-82
2022/06/28 07:38:54;;;;;;;6.20;1.60;;;23.00;40.60;;;;;;4953784;29;20966;-82
2022/06/28 07:41:20;;;;;;;6.90;1.60;;;23.30;39.30;;;;;;4954482;29;20456;-85
2022/06/28 07:43:50;;;;;;;6.33;1.50;;;23.60;42.20;;;;;;4954365;29;20998;-82
2022/06/28 07:46:18;;;;;;;4.83;1.00;;;23.80;40.40;;;;;;4954790;29;20478;-83
2022/06/28 07:48:45;;;;;;;4.97;1.50;;;24.00;36.60;;;;;;4954530;29;20494;-84
2022/06/28 07:53:56;;;;;;;5.07;1.13;;;24.20;33.10;;;;;;4954199;29;20439;-82
2022/06/28 07:56:23;;;;;;;4.57;1.07;;;24.40;30.40;;;;;;4954310;29;20479;-82
2022/06/28 07:58:51;;;;;;;7.97;1.73;;;24.50;32.00;;;;;;4954280;29;20456;-83
2022/06/28 08:01:18;;;;;;;5.00;1.30;;;23.80;29.80;;;;;;4954380;29;20459;-84
2022/06/28 08:03:45;;;;;;;6.13;1.33;;;24.20;30.00;;;;;;4953978;29;20545;-82
2022/06/28 08:06:12;;;;;;;6.73;1.17;;;24.00;29.00;;;;;;4954104;29;20502;-85
2022/06/28 08:08:39;;;;;;;4.67;1.30;;;24.10;30.70;;;;;;4957239;28;20459;-83
2022/06/28 08:11:06;;;;;;;6.70;1.43;;;24.30;28.50;;;;;;4957810;29;20478;-83
2022/06/28 08:13:32;;;;;;;9.13;1.73;;;24.50;28.20;;;;;;4958071;29;20986;-85
2022/06/28 08:16:01;;;;;;;5.07;1.30;;;24.50;24.40;;;;;;4958188;29;20495;-83
2022/06/28 08:18:28;;;;;;;5.90;1.30;;;24.30;25.60;;;;;;4958545;29;20463;-82
2022/06/28 08:20:55;;;;;;;5.70;1.30;;;24.40;28.10;;;;;;4958145;29;20456;-84
2022/06/28 08:23:22;;;;;;;6.57;1.37;;;24.60;29.10;;;;;;4958384;29;20463;-83
2022/06/28 08:25:49;;;;;;;5.50;1.60;;;24.80;25.70;;;;;;4958432;29;20483;-83
2022/06/28 08:28:16;;;;;;;6.37;1.50;;;24.50;30.20;;;;;;4957617;29;20460;-83
2022/06/28 08:30:43;;;;;;;6.10;1.33;;;24.60;25.10;;;;;;4977780;28;20855;-82
2022/06/28 08:33:12;;;;;;;4.60;1.30;;;24.90;25.80;;;;;;4977805;28;20458;-82
2022/06/28 08:35:39;;;;;;;6.33;1.50;;;24.60;25.50;;;;;;4976896;28;20983;-82
2022/06/28 08:38:05;;;;;;;7.63;1.77;;;24.90;24.70;;;;;;4976711;28;20824;-82
2022/06/28 08:40:32;;;;;;;5.87;1.40;;;25.30;25.10;;;;;;4977289;28;20458;-82
2022/06/28 08:43:01;;;;;;;5.40;1.23;;;24.90;24.70;;;;;;4977217;28;20455;-82
2022/06/28 08:45:28;;;;;;;4.90;1.43;;;24.90;24.40;;;;;;4977426;28;20479;-78
2022/06/28 08:47:57;;;;;;;8.20;1.30;;;25.10;24.20;;;;;;4976576;28;20595;-77
2022/06/28 08:50:33;;;;;;;6.30;1.53;;;25.10;23.40;;;;;;4975988;28;20465;-80
2022/06/28 08:53:02;;;;;;;5.90;1.13;;;25.40;21.80;;;;;;4976202;28;20482;-81
2022/06/28 08:55:31;;;;;;;6.20;1.77;;;25.20;20.50;;;;;;4976399;28;20481;-81
2022/06/28 08:57:58;;;;;;;4.10;1.30;;;25.50;19.50;;;;;;4977020;28;20875;-80
2022/06/28 09:00:25;;;;;;;6.83;1.33;;;25.10;19.30;;;;;;4976824;28;20462;-80
2022/06/28 09:02:53;;;;;;;5.97;1.30;;;25.30;19.60;;;;;;4976523;28;20459;-76
2022/06/28 09:05:21;;;;;;;4.40;1.30;;;25.40;18.50;;;;;;4976786;28;20489;-79
2022/06/28 09:07:50;;;;;;;6.23;1.60;;;25.90;17.10;;;;;;4977299;28;20463;-79
2022/06/28 09:10:16;;;;;;;5.30;1.27;;;25.90;17.90;;;;;;4976435;28;20454;-77
2022/06/28 09:12:43;;;;;;;5.13;1.23;;;25.80;16.70;;;;;;4976413;28;20501;-77
2022/06/28 09:15:11;;;;;;;5.07;1.40;;;25.40;18.90;;;;;;4975914;28;20478;-80
2022/06/28 09:17:38;;;;;;;6.93;1.23;;;26.40;16.50;;;;;;4975786;28;20463;-79
2022/06/28 09:20:07;;;;;;;5.43;1.10;;;26.90;18.70;;;;;;4975722;28;20458;-77
2022/06/28 09:22:36;;;;;;;7.30;1.10;;;27.00;16.80;;;;;;4976452;28;20451;-79
2022/06/28 09:25:06;;;;;;;9.53;1.30;;;27.10;14.80;;;;;;4976410;28;20991;-83
2022/06/28 09:27:36;;;;;;;4.83;1.30;;;27.30;12.60;;;;;;4977427;28;20443;-79
2022/06/28 09:30:05;;;;;;;4.57;1.20;;;27.20;14.60;;;;;;4976889;28;20469;-83
2022/06/28 09:32:34;;;;;;;5.57;2.17;;;26.90;10.40;;;;;;4976664;28;20482;-82
2022/06/28 09:35:03;;;;;;;6.73;1.70;;;27.30;15.80;;;;;;4976152;28;20486;-82
2022/06/28 09:37:40;;;;;;;5.40;1.20;;;27.80;10.90;;;;;;4975924;28;20461;-82
2022/06/28 09:40:16;;;;;;;8.53;1.23;;;28.00;9.80;;;;;;4976787;28;20459;-82
2022/06/28 09:42:44;;;;;;;3.90;0.90;;;28.30;9.90;;;;;;4976981;28;20469;-82
2022/06/28 09:45:13;;;;;;;6.00;1.50;;;28.00;8.90;;;;;;4976468;28;20478;-83
2022/06/28 09:47:44;;;;;;;6.13;1.03;;;28.50;9.40;;;;;;4976572;28;20963;-82
2022/06/28 09:50:13;;;;;;;6.53;1.83;;;28.40;4.60;;;;;;4976879;28;20454;-82
2022/06/28 09:52:45;;;;;;;8.60;1.10;;;28.10;5.00;;;;;;4975906;28;20856;-83
2022/06/28 09:55:15;;;;;;;6.60;1.50;;;28.30;3.00;;;;;;4976713;28;20824;-82
2022/06/28 09:57:45;;;;;;;5.90;1.50;;;28.40;6.30;;;;;;4977087;28;20465;-83
2022/06/28 10:00:13;;;;;;;7.10;1.00;;;28.50;5.60;;;;;;4977289;28;20478;-80
2022/06/28 10:02:41;;;;;;;5.23;1.20;;;28.90;2.40;;;;;;4976145;28;20451;-80
2022/06/28 10:05:08;;;;;;;4.87;1.00;;;28.20;2.00;;;;;;4975561;28;20486;-80
2022/06/28 10:07:36;;;;;;;6.20;1.50;;;28.10;3.50;;;;;;4976732;28;20929;-81
2022/06/28 10:10:04;;;;;;;4.93;1.30;;;28.50;10.00;;;;;;4976569;28;20437;-80
2022/06/28 10:15:19;;;;;;;7.47;1.30;;;29.30;1.00;;;;;;4975910;28;20606;-80
2022/06/28 10:17:54;;;;;;;5.60;1.23;;;29.50;1.00;;;;;;4975612;28;20473;-79
2022/06/28 10:20:24;;;;;;;7.27;1.50;;;30.30;1.00;;;;;;4976756;28;20458;-80
2022/06/28 10:22:51;;;;;;;6.23;1.33;;;30.30;1.00;;;;;;4975848;28;20451;-80
2022/06/28 10:25:20;;;;;;;5.23;1.63;;;30.70;1.00;;;;;;4976405;28;20479;-80
2022/06/28 10:27:50;;;;;;;6.33;1.57;;;29.70;1.00;;;;;;4976875;28;20455;-80
2022/06/28 10:30:29;;;;;;;6.00;1.40;;;28.90;1.00;;;;;;4976828;28;20458;-81
2022/06/28 10:32:56;;;;;;;5.53;1.27;;;29.50;1.00;;;;;;4976934;28;20538;-80
2022/06/28 10:36:03;;;;;;;6.53;1.67;;;30.00;1.00;;;;;;4975856;28;20831;-80
2022/06/28 10:38:30;;;;;;;5.07;1.43;;;29.40;1.00;;;;;;4975930;28;20454;-81
2022/06/28 10:41:12;;;;;;;5.60;1.43;;;29.70;1.00;;;;;;4975839;28;20462;-80
2022/06/28 10:43:50;;;;;;;7.90;1.87;;;30.40;1.00;;;;;;4974674;28;20455;-78
2022/06/28 10:46:17;;;;;;;8.47;1.83;;;30.50;1.00;;;;;;4975066;28;20506;-80
2022/06/28 10:49:05;;;;;;;8.00;1.70;;;30.90;1.00;;;;;;4974711;28;20459;-80
2022/06/28 10:51:33;;;;;;;5.87;1.30;;;30.60;1.00;;;;;;4974648;28;20462;-80
2022/06/28 10:54:04;;;;;;;6.67;1.93;;;29.80;1.00;;;;;;4975065;28;20994;-77
2022/06/28 10:56:31;;;;;;;8.43;1.67;;;30.60;1.00;;;;;;4974944;28;20476;-80
2022/06/28 10:59:02;;;;;;;9.13;1.57;;;31.30;1.00;;;;;;4974370;28;20974;-79
2022/06/28 11:01:54;;;;;;;7.00;1.80;;;32.20;1.00;;;;;;4974754;28;20962;-80
2022/06/28 11:04:30;;;;;;;9.23;2.00;;;32.20;1.00;;;;;;4975355;28;20502;-78
2022/06/28 11:07:05;;;;;;;6.57;1.80;;;32.20;1.00;;;;;;4975047;28;20462;-79
2022/06/28 11:09:47;;;;;;;5.77;1.30;;;32.20;1.00;;;;;;4975254;28;20481;-81
2022/06/28 11:12:15;;;;;;;6.00;1.90;;;31.90;1.00;;;;;;4974659;28;20478;-80
2022/06/28 11:14:49;;;;;;;7.30;2.00;;;32.50;1.00;;;;;;4975169;28;20541;-80
2022/06/28 11:17:18;;;;;;;7.40;1.90;;;32.50;1.00;;;;;;4974337;28;20994;-78
2022/06/28 11:19:53;;;;;;;8.57;2.27;;;32.50;1.00;;;;;;4974495;28;20433;-79
2022/06/28 11:22:21;;;;;;;5.87;1.57;;;32.60;1.00;;;;;;4974359;28;20448;-80
2022/06/28 11:24:48;;;;;;;6.60;1.67;;;32.50;1.00;;;;;;4974590;28;20501;-81
2022/06/28 11:27:21;;;;;;;5.60;1.43;;;32.40;1.00;;;;;;4975340;28;20531;-81
2022/06/28 11:29:54;;;;;;;8.43;2.23;;;31.30;1.00;;;;;;4975988;28;20537;-80
2022/06/28 11:32:23;;;;;;;6.93;1.50;;;31.60;1.00;;;;;;4975844;28;20514;-78
2022/06/28 11:34:58;;;;;;;3.90;1.00;;;32.30;1.00;;;;;;4974893;28;20472;-80
2022/06/28 11:37:25;;;;;;;5.17;1.50;;;32.90;1.00;;;;;;4974062;28;20458;-80
2022/06/28 11:39:57;;;;;;;13.30;1.40;;;33.10;1.00;;;;;;4975680;28;20458;-81
2022/06/28 11:42:23;;;;;;;6.50;1.50;;;33.30;1.00;;;;;;4975107;28;20446;-80
2022/06/28 11:44:52;;;;;;;4.60;1.17;;;33.00;1.00;;;;;;4974402;28;20456;-79
2022/06/28 11:47:20;;;;;;;6.07;1.63;;;33.30;1.00;;;;;;4974264;28;20458;-80
2022/06/28 11:49:52;;;;;;;5.30;1.30;;;33.30;1.00;;;;;;4975109;28;20561;-79
2022/06/28 11:52:19;;;;;;;7.90;1.90;;;33.10;1.00;;;;;;4975303;28;20518;-80
2022/06/28 11:54:55;;;;;;;4.23;1.30;;;33.60;1.00;;;;;;4974653;28;20478;-80
2022/06/28 11:57:22;;;;;;;3.97;1.13;;;33.40;1.00;;;;;;4974520;28;20462;-80
2022/06/28 11:59:56;;;;;;;4.80;1.77;;;33.70;1.00;;;;;;4974701;28;20461;-81
2022/06/28 12:02:55;;;;;;;9.07;1.63;;;34.40;1.00;;;;;;4974269;28;20454;-81
2022/06/28 12:05:32;;;;;;;6.27;2.07;;;33.90;1.00;;;;;;4926877;29;20518;-80
2022/06/28 12:08:00;;;;;;;6.60;1.80;;;33.80;1.00;;;;;;4961842;28;20462;-82
2022/06/28 12:10:29;;;;;;;5.20;1.53;;;35.10;1.00;;;;;;4974207;28;20462;-80
2022/06/28 12:12:57;;;;;;;7.53;1.77;;;33.50;1.00;;;;;;4973868;28;20579;-80
2022/06/28 12:15:28;;;;;;;5.27;1.70;;;33.50;1.00;;;;;;4973523;28;20486;-81
2022/06/28 12:17:59;;;;;;;5.40;1.50;;;33.70;1.00;;;;;;4974034;28;20470;-81
2022/06/28 12:20:26;;;;;;;4.80;1.50;;;34.40;1.00;;;;;;4975341;28;20455;-80
2022/06/28 12:22:57;;;;;;;5.33;1.67;;;34.70;1.00;;;;;;4976046;28;20429;-81
2022/06/28 12:25:24;;;;;;;4.40;1.20;;;34.70;1.00;;;;;;4974985;28;20485;-80
2022/06/28 12:27:51;;;;;;;5.73;1.53;;;33.40;1.00;;;;;;4975432;28;20463;-80
2022/06/28 12:30:18;;;;;;;7.40;2.63;;;33.30;1.00;;;;;;4975467;28;20430;-80
2022/06/28 12:32:46;;;;;;;8.00;1.40;;;34.70;1.00;;;;;;4975065;28;20482;-81
2022/06/28 12:35:14;;;;;;;10.00;1.30;;;34.80;1.00;;;;;;4974113;28;20453;-80
2022/06/28 12:37:41;;;;;;;4.33;1.23;;;35.50;1.00;;;;;;4973731;28;20831;-80
2022/06/28 12:40:09;;;;;;;6.00;1.50;;;35.80;1.00;;;;;;4973762;28;20465;-80
2022/06/28 12:42:36;;;;;;;7.27;2.10;;;35.00;1.00;;;;;;4974360;28;20820;-81
2022/06/28 12:45:04;;;;;;;5.40;1.70;;;34.20;1.00;;;;;;4973558;28;20478;-81
2022/06/28 12:47:31;;;;;;;4.87;1.97;;;33.10;1.00;;;;;;4973249;28;20429;-80
2022/06/28 12:50:02;;;;;;;5.03;1.60;;;34.50;1.00;;;;;;4973994;28;20449;-80
2022/06/28 12:52:30;;;;;;;6.33;1.57;;;34.70;1.00;;;;;;4973794;28;20457;-80
2022/06/28 12:54:58;;;;;;;5.83;2.13;;;35.00;1.00;;;;;;4975606;28;20999;-81
2022/06/28 12:57:24;;;;;;;4.53;1.13;;;33.50;1.00;;;;;;4976923;28;20842;-80
2022/06/28 12:59:52;;;;;;;7.13;1.70;;;34.20;1.00;;;;;;4977089;28;20482;-80
2022/06/28 13:02:19;;;;;;;7.50;1.40;;;33.70;1.00;;;;;;4976563;28;20970;-80
2022/06/28 13:04:47;;;;;;;4.83;1.30;;;33.00;1.00;;;;;;4977220;28;20476;-80
2022/06/28 13:07:15;;;;;;;4.00;1.10;;;32.90;1.00;;;;;;4978621;28;20457;-80
2022/06/28 13:10:05;;;;;;;4.90;1.07;;;34.20;1.00;;;;;;4976442;28;20469;-87
2022/06/28 13:12:38;;;;;;;3.80;0.90;;;33.80;1.00;;;;;;4975801;28;20464;-86
2022/06/28 13:15:05;;;;;;;5.80;1.73;;;34.60;1.00;;;;;;4975414;28;20481;-86
2022/06/28 13:17:32;;;;;;;4.83;0.90;;;35.60;1.00;;;;;;4975548;28;20448;-86
2022/06/28 13:20:00;;;;;;;4.23;1.03;;;35.70;1.00;;;;;;4975247;28;20463;-84
2022/06/28 13:22:28;;;;;;;4.83;1.20;;;36.10;1.00;;;;;;4976685;28;20514;-80
2022/06/28 13:24:57;;;;;;;5.43;1.10;;;36.40;1.00;;;;;;4978010;28;20483;-79
2022/06/28 13:27:23;;;;;;;4.47;1.40;;;35.80;1.00;;;;;;4977283;28;20435;-80
2022/06/28 13:29:52;;;;;;;5.70;1.27;;;36.20;1.00;;;;;;4976979;28;20429;-82
2022/06/28 13:32:19;;;;;;;6.20;1.23;;;36.70;1.00;;;;;;4976017;28;20494;-81
2022/06/28 13:34:48;;;;;;;5.03;1.20;;;35.20;1.00;;;;;;4975710;28;20449;-81
2022/06/28 13:37:15;;;;;;;4.87;1.37;;;34.40;1.00;;;;;;4975634;28;20434;-81